createdAt,value
2022-12-03T00:00:49.953Z,99456.52
2022-12-03T00:03:26.368Z,99459.95
2022-12-03T00:05:58.035Z,99465.65
2022-12-03T00:08:29.572Z,99461.56
2022-12-03T00:11:01.063Z,99457.85
2022-12-03T00:13:32.661Z,99455.66
2022-12-03T00:16:04.272Z,99460.90
2022-12-03T00:18:35.791Z,99461.41
2022-12-03T00:21:07.691Z,99464.31
2022-12-03T00:23:42.216Z,99463.39
2022-12-03T00:26:14.390Z,99465.23
2022-12-03T00:28:45.890Z,99464.73
2022-12-03T00:31:17.746Z,99464.25
2022-12-03T00:33:49.335Z,99457.80
2022-12-03T00:36:21.118Z,99457.42
2022-12-03T00:38:52.647Z,99454.02
2022-12-03T00:41:24.221Z,99452.98
2022-12-03T00:43:57.738Z,99454.30
2022-12-03T00:46:27.735Z,99451.50
2022-12-03T00:48:59.343Z,99445.31
2022-12-03T00:51:30.860Z,99444.90
2022-12-03T00:54:02.380Z,99445.25
2022-12-03T00:56:33.918Z,99443.64
2022-12-03T00:59:05.403Z,99439.42
2022-12-03T01:01:37.257Z,99433.04
2022-12-03T01:04:09.333Z,99432.75
2022-12-03T01:06:41.072Z,99436.61
2022-12-03T01:09:12.605Z,99433.02
2022-12-03T01:11:44.311Z,99428.09
2022-12-03T01:14:18.011Z,99430.20
2022-12-03T01:16:49.806Z,99434.85
2022-12-03T01:19:21.412Z,99437.95
2022-12-03T01:21:53.586Z,99435.23
2022-12-03T01:24:25.340Z,99429.39
2022-12-03T01:26:57.665Z,99429.80
2022-12-03T01:29:29.261Z,99433.83
2022-12-03T01:32:19.512Z,99436.30
2022-12-03T01:34:53.103Z,99433.20
2022-12-03T01:37:24.166Z,99434.94
2022-12-03T01:39:55.723Z,99432.90
2022-12-03T01:42:29.599Z,99429.20
2022-12-03T01:45:01.858Z,99423.12
2022-12-03T01:47:36.833Z,99423.92
2022-12-03T01:50:16.372Z,99420.79
2022-12-03T01:52:48.112Z,99422.14
2022-12-03T01:55:22.318Z,99426.27
2022-12-03T01:57:56.689Z,99427.13
2022-12-03T02:00:29.645Z,99430.07
2022-12-03T02:03:04.983Z,99430.90
2022-12-03T02:05:37.392Z,99429.86
2022-12-03T02:08:29.305Z,99429.71
2022-12-03T02:11:04.054Z,99420.80
2022-12-03T02:13:36.257Z,99420.80
2022-12-03T02:16:09.436Z,99421.41
2022-12-03T02:18:40.978Z,99424.84
2022-12-03T02:21:21.446Z,99421.41
2022-12-03T02:24:03.547Z,99418.34
2022-12-03T02:26:35.056Z,99427.30
2022-12-03T02:29:06.705Z,99429.79
2022-12-03T02:31:38.358Z,99439.90
2022-12-03T02:34:11.572Z,99434.26
2022-12-03T02:36:43.065Z,99436.20
2022-12-03T02:39:14.510Z,99439.89
2022-12-03T02:42:03.631Z,99437.92
2022-12-03T02:44:35.146Z,99440.87
2022-12-03T02:47:07.240Z,99435.95
2022-12-03T02:49:38.844Z,99439.95
2022-12-03T02:52:10.450Z,99442.62
2022-12-03T02:54:42.145Z,99436.09
2022-12-03T02:57:14.122Z,99427.27
2022-12-03T02:59:46.560Z,99424.30
2022-12-03T03:02:18.433Z,99423.85
2022-12-03T03:04:50.592Z,99418.67
2022-12-03T03:07:22.518Z,99428.84
2022-12-03T03:09:54.196Z,99430.29
2022-12-03T03:12:26.168Z,99429.04
2022-12-03T03:14:58.548Z,99425.21
2022-12-03T03:17:30.079Z,99428.42
2022-12-03T03:20:02.265Z,99430.48
2022-12-03T03:22:38.241Z,99425.68
2022-12-03T03:25:14.109Z,99421.84
2022-12-03T03:27:46.163Z,99425.39
2022-12-03T03:30:18.187Z,99432.89
2022-12-03T03:32:49.691Z,99430.73
2022-12-03T03:35:21.377Z,99433.11
2022-12-03T03:37:53.494Z,99427.96
2022-12-03T03:40:25.617Z,99430.19
2022-12-03T03:42:57.847Z,99425.27
2022-12-03T03:45:29.879Z,99427.13
2022-12-03T03:48:02.401Z,99426.75
2022-12-03T03:50:34.618Z,99423.84
2022-12-03T03:53:06.904Z,99423.70
2022-12-03T03:55:38.924Z,99418.63
2022-12-03T03:58:10.626Z,99416.08
2022-12-03T04:00:43.044Z,99413.54
2022-12-03T04:03:15.386Z,99414.55
2022-12-03T04:05:47.333Z,99418.04
2022-12-03T04:08:18.914Z,99418.14
2022-12-03T04:11:08.570Z,99419.03
2022-12-03T04:13:40.180Z,99421.95
2022-12-03T04:16:11.750Z,99424.69
2022-12-03T04:18:46.447Z,99423.55
2022-12-03T04:21:38.175Z,99420.88
2022-12-03T04:24:11.990Z,99418.80
2022-12-03T04:27:01.525Z,99421.70
2022-12-03T04:29:33.080Z,99430.05
2022-12-03T04:32:22.766Z,99432.39
2022-12-03T04:35:11.980Z,99432.14
2022-12-03T04:37:43.614Z,99428.02
2022-12-03T04:40:29.673Z,99423.00
2022-12-03T04:43:01.167Z,99425.21
2022-12-03T04:45:32.768Z,99424.23
2022-12-03T04:48:04.399Z,99429.58
2022-12-03T04:50:35.922Z,99425.25
2022-12-03T04:53:07.445Z,99428.05
2022-12-03T04:55:38.981Z,99426.25
2022-12-03T04:58:10.667Z,99419.48
2022-12-03T05:00:42.273Z,99413.61
2022-12-03T05:03:13.737Z,99412.66
2022-12-03T05:05:45.300Z,99411.90
2022-12-03T05:08:16.972Z,99413.67
2022-12-03T05:10:48.782Z,99410.52
2022-12-03T05:13:20.332Z,99411.83
2022-12-03T05:15:51.847Z,99409.54
2022-12-03T05:18:23.318Z,99408.25
2022-12-03T05:20:54.917Z,99406.80
2022-12-03T05:23:26.741Z,99405.82
2022-12-03T05:25:58.493Z,99406.88
2022-12-03T05:28:30.107Z,99407.08
2022-12-03T05:31:01.736Z,99406.05
2022-12-03T05:33:33.493Z,99402.64
2022-12-03T05:36:05.167Z,99403.67
2022-12-03T05:38:36.798Z,99404.48
2022-12-03T05:41:28.878Z,99398.83
2022-12-03T05:44:00.398Z,99402.77
2022-12-03T05:46:32.848Z,99401.77
2022-12-03T05:49:04.568Z,99404.97
2022-12-03T05:51:36.092Z,99409.23
2022-12-03T05:54:08.838Z,99406.86
2022-12-03T05:56:40.448Z,99414.68
2022-12-03T05:59:12.010Z,99418.27
2022-12-03T06:01:43.481Z,99417.83
2022-12-03T06:04:15.090Z,99410.90
2022-12-03T06:06:46.632Z,99410.14
2022-12-03T06:09:18.170Z,99406.90
2022-12-03T06:11:53.616Z,99412.26
2022-12-03T06:14:25.147Z,99411.26
2022-12-03T06:16:56.887Z,99413.92
2022-12-03T06:19:28.444Z,99419.30
2022-12-03T06:21:59.957Z,99421.27
2022-12-03T06:24:31.652Z,99415.71
2022-12-03T06:27:03.184Z,99413.24
2022-12-03T06:29:34.790Z,99418.59
2022-12-03T06:32:07.004Z,99421.73
2022-12-03T06:34:38.936Z,99425.99
2022-12-03T06:37:10.452Z,99428.80
2022-12-03T06:39:42.043Z,99425.98
2022-12-03T06:42:13.691Z,99423.99
2022-12-03T06:44:45.293Z,99428.57
2022-12-03T06:47:16.867Z,99438.60
2022-12-03T06:49:48.375Z,99438.44
2022-12-03T06:52:19.872Z,99443.70
2022-12-03T06:54:51.581Z,99445.44
2022-12-03T06:57:23.350Z,99445.45
2022-12-03T06:59:55.055Z,99451.44
2022-12-03T07:02:26.837Z,99449.20
2022-12-03T07:04:58.808Z,99455.71
2022-12-03T07:07:33.323Z,99457.29
2022-12-03T07:10:05.644Z,99456.98
2022-12-03T07:12:37.919Z,99452.91
2022-12-03T07:15:11.429Z,99450.48
2022-12-03T07:17:41.399Z,99449.34
2022-12-03T07:20:14.419Z,99445.48
2022-12-03T07:22:46.041Z,99448.16
2022-12-03T07:25:22.787Z,99444.34
2022-12-03T07:27:55.144Z,99454.13
2022-12-03T07:30:27.908Z,99455.08
2022-12-03T07:32:59.602Z,99453.39
2022-12-03T07:35:31.142Z,99458.38
2022-12-03T07:38:02.780Z,99461.77
2022-12-03T07:40:34.341Z,99459.09
2022-12-03T07:43:05.900Z,99458.12
2022-12-03T07:45:37.428Z,99462.13
2022-12-03T07:48:09.345Z,99460.71
2022-12-03T07:50:40.862Z,99457.48
2022-12-03T07:53:12.379Z,99456.23
2022-12-03T07:55:43.882Z,99453.78
2022-12-03T07:58:15.414Z,99451.55
2022-12-03T08:00:46.954Z,99448.95
2022-12-03T08:03:18.478Z,99451.14
2022-12-03T08:05:50.322Z,99451.61
2022-12-03T08:08:21.937Z,99446.55
2022-12-03T08:10:53.441Z,99446.80
2022-12-03T08:13:24.953Z,99444.89
2022-12-03T08:15:58.479Z,99446.16
2022-12-03T08:18:29.169Z,99452.96
2022-12-03T08:21:00.989Z,99452.21
2022-12-03T08:23:32.622Z,99447.23
2022-12-03T08:26:13.293Z,99444.27
2022-12-03T08:28:46.126Z,99444.85
2022-12-03T08:31:20.996Z,99440.52
2022-12-03T08:33:55.144Z,99444.64
2022-12-03T08:36:30.357Z,99444.38
2022-12-03T08:39:15.915Z,99440.48
2022-12-03T08:42:13.543Z,99435.34
2022-12-03T08:44:46.059Z,99439.69
2022-12-03T08:47:21.456Z,99443.15
2022-12-03T08:52:47.121Z,99446.06
2022-12-03T08:55:35.988Z,99450.62
2022-12-03T09:01:43.432Z,99457.92
2022-12-03T09:04:25.327Z,99460.30
2022-12-03T09:06:58.065Z,99459.45
2022-12-03T09:09:30.352Z,99462.42
2022-12-03T09:12:02.942Z,99461.17
2022-12-03T09:14:34.440Z,99455.43
2022-12-03T09:17:06.529Z,99450.79
2022-12-03T09:19:44.257Z,99451.31
2022-12-03T09:22:17.555Z,99452.45
2022-12-03T09:24:49.063Z,99455.43
2022-12-03T09:27:22.557Z,99452.49
2022-12-03T09:29:52.483Z,99454.02
2022-12-03T09:32:24.036Z,99455.63
2022-12-03T09:34:56.049Z,99457.30
2022-12-03T09:37:27.810Z,99459.73
2022-12-03T09:39:59.317Z,99455.35
2022-12-03T09:42:30.858Z,99458.80
2022-12-03T09:45:02.999Z,99458.70
2022-12-03T09:47:35.323Z,99462.49
2022-12-03T09:50:13.721Z,99461.43
2022-12-03T09:52:46.831Z,99460.27
2022-12-03T09:55:22.377Z,99463.27
2022-12-03T09:57:56.239Z,99461.17
2022-12-03T10:00:30.387Z,99455.86
2022-12-03T10:03:05.687Z,99455.80
2022-12-03T10:05:37.293Z,99459.00
2022-12-03T10:08:11.814Z,99456.31
2022-12-03T10:10:44.940Z,99456.81
2022-12-03T10:13:25.845Z,99447.81
2022-12-03T10:16:00.090Z,99450.15
2022-12-03T10:18:39.803Z,99451.17
2022-12-03T10:24:25.869Z,99448.64
2022-12-03T10:26:59.792Z,99444.30
2022-12-03T10:38:08.203Z,99443.46
2022-12-03T10:40:39.727Z,99440.46
2022-12-03T10:43:22.530Z,99439.10
2022-12-03T10:46:13.504Z,99440.20
2022-12-03T10:48:45.079Z,99429.23
2022-12-03T10:51:21.362Z,99429.12
2022-12-03T10:53:54.338Z,99430.69
2022-12-03T10:56:27.726Z,99428.89
2022-12-03T10:58:59.826Z,99431.55
2022-12-03T11:01:32.900Z,99426.90
2022-12-03T11:04:06.335Z,99427.54
2022-12-03T11:06:41.856Z,99424.50
2022-12-03T11:09:20.143Z,99420.40
2022-12-03T11:11:52.468Z,99415.43
2022-12-03T11:15:05.310Z,99412.48
2022-12-03T11:17:48.957Z,99409.73
2022-12-03T11:21:15.268Z,99416.73
2022-12-03T11:24:21.277Z,99416.70
2022-12-03T11:27:24.921Z,99417.97
2022-12-03T11:30:01.737Z,99418.66
2022-12-03T11:33:07.353Z,99412.79
2022-12-03T11:36:02.703Z,99408.51
2022-12-03T11:41:36.048Z,99412.30
2022-12-03T11:44:31.390Z,99417.11
2022-12-03T11:47:14.873Z,99413.91
2022-12-03T11:49:50.386Z,99410.50
2022-12-03T11:55:27.476Z,99401.20
2022-12-03T11:58:03.822Z,99401.36
2022-12-03T12:00:35.390Z,99400.52
2022-12-03T12:09:03.905Z,99375.29
2022-12-03T12:11:37.039Z,99374.92
2022-12-03T12:14:09.690Z,99378.85
2022-12-03T12:16:53.160Z,99377.75
2022-12-03T12:22:52.975Z,99380.27
2022-12-03T12:25:43.758Z,99376.45
2022-12-03T12:31:10.509Z,99378.69
2022-12-03T12:36:32.274Z,99380.50
2022-12-03T12:39:33.320Z,99374.64
2022-12-03T12:42:10.066Z,99367.09
2022-12-03T12:44:44.034Z,99362.63
2022-12-03T12:47:15.669Z,99365.00
2022-12-03T12:49:51.741Z,99366.21
2022-12-03T12:55:14.952Z,99355.47
2022-12-03T12:57:49.717Z,99352.48
2022-12-03T13:00:24.929Z,99354.88
2022-12-03T13:03:01.204Z,99359.68
2022-12-03T13:08:32.144Z,99362.98
2022-12-03T13:11:17.788Z,99357.59
2022-12-03T13:14:01.815Z,99363.80
2022-12-03T13:16:38.731Z,99372.35
2022-12-03T13:28:23.948Z,99373.34
2022-12-03T13:30:58.680Z,99376.08
2022-12-03T13:33:31.022Z,99372.50
2022-12-03T13:36:07.085Z,99374.39
2022-12-03T13:38:38.747Z,99376.83
2022-12-03T13:41:38.201Z,99377.27
2022-12-03T13:44:21.077Z,99382.82
2022-12-03T13:49:42.739Z,99380.95
2022-12-03T13:52:20.543Z,99375.28
2022-12-03T13:54:55.078Z,99374.98
2022-12-03T13:57:27.125Z,99374.83
2022-12-03T13:59:58.983Z,99370.29
2022-12-03T14:02:30.601Z,99373.56
2022-12-03T14:05:02.704Z,99373.40
2022-12-03T14:07:34.462Z,99373.61
2022-12-03T14:10:08.313Z,99367.76
2022-12-03T14:12:48.488Z,99365.48
2022-12-03T14:15:23.577Z,99360.42
2022-12-03T14:18:02.913Z,99363.70
2022-12-03T14:20:41.605Z,99363.70
2022-12-03T14:23:13.189Z,99364.48
2022-12-03T14:25:44.997Z,99363.36
2022-12-03T14:28:16.484Z,99363.28
2022-12-03T14:30:48.814Z,99362.13
2022-12-03T14:33:23.114Z,99359.17
2022-12-03T14:35:55.996Z,99355.31
2022-12-03T14:38:27.548Z,99358.83
2022-12-03T14:40:59.158Z,99361.27
2022-12-03T14:43:38.208Z,99365.15
2022-12-03T14:46:21.886Z,99368.11
2022-12-03T14:48:57.072Z,99368.02
2022-12-03T14:51:28.757Z,99369.61
2022-12-03T14:54:00.387Z,99370.01
2022-12-03T14:56:34.722Z,99369.96
2022-12-03T14:59:07.885Z,99368.75
2022-12-03T15:01:39.641Z,99372.92
2022-12-03T15:04:23.287Z,99377.36
2022-12-03T15:06:54.833Z,99377.69
2022-12-03T15:09:26.603Z,99377.73
2022-12-03T15:11:59.478Z,99380.91
2022-12-03T15:14:33.019Z,99377.84
2022-12-03T15:17:05.028Z,99377.58
2022-12-03T15:22:25.877Z,99374.37
2022-12-03T15:24:57.424Z,99381.59
2022-12-03T15:27:28.934Z,99381.27
2022-12-03T15:30:00.505Z,99380.38
2022-12-03T15:32:38.655Z,99382.83
2022-12-03T15:35:15.000Z,99387.69
2022-12-03T15:43:27.498Z,99385.96
2022-12-03T15:45:59.050Z,99387.80
2022-12-03T15:48:30.701Z,99388.44
2022-12-03T15:51:02.205Z,99389.22
2022-12-03T15:53:33.787Z,99385.10
2022-12-03T15:56:06.103Z,99382.98
2022-12-03T16:01:27.553Z,99384.68
2022-12-03T16:03:59.245Z,99377.70
2022-12-03T16:06:33.860Z,99382.33
2022-12-03T16:11:50.960Z,99388.78
2022-12-03T16:14:22.519Z,99389.02
2022-12-03T16:19:46.681Z,99387.39
2022-12-03T16:22:18.676Z,99382.80
2022-12-03T16:33:27.058Z,99373.10
2022-12-03T16:36:02.953Z,99370.91
2022-12-03T16:38:42.185Z,99369.90
2022-12-03T16:41:15.084Z,99373.50
2022-12-03T16:43:48.584Z,99375.83
2022-12-03T16:46:33.172Z,99378.13
2022-12-03T16:49:06.451Z,99372.13
2022-12-03T16:51:37.983Z,99369.39
2022-12-03T16:54:11.808Z,99369.98
2022-12-03T16:59:33.969Z,99364.97
2022-12-03T17:02:05.768Z,99365.73
2022-12-03T17:04:37.475Z,99366.66
2022-12-03T17:07:09.017Z,99369.14
2022-12-03T17:09:41.039Z,99363.73
2022-12-03T17:12:12.532Z,99362.16
2022-12-03T17:14:44.113Z,99364.73
2022-12-03T17:17:15.701Z,99367.67
2022-12-03T17:19:47.210Z,99361.68
2022-12-03T17:22:18.676Z,99359.50
2022-12-03T17:24:50.348Z,99357.83
2022-12-03T17:27:23.237Z,99359.24
2022-12-03T17:29:54.928Z,99362.30
2022-12-03T17:32:26.761Z,99358.24
2022-12-03T17:34:58.572Z,99352.44
2022-12-03T17:37:30.109Z,99348.39
2022-12-03T17:40:01.624Z,99346.48
2022-12-03T17:42:33.361Z,99344.45
2022-12-03T17:45:05.882Z,99339.04
2022-12-03T17:47:37.357Z,99340.89
2022-12-03T17:50:12.025Z,99340.38
2022-12-03T17:52:43.478Z,99341.77
2022-12-03T17:55:24.158Z,99341.39
2022-12-03T17:57:59.981Z,99335.73
2022-12-03T18:00:31.941Z,99334.09
2022-12-03T18:03:03.484Z,99331.48
2022-12-03T18:05:35.007Z,99334.11
2022-12-03T18:08:07.566Z,99326.66
2022-12-03T18:10:39.158Z,99332.35
2022-12-03T18:13:11.036Z,99330.20
2022-12-03T18:15:42.721Z,99330.73
2022-12-03T18:18:14.531Z,99327.35
2022-12-03T18:20:46.042Z,99326.16
2022-12-03T18:23:17.966Z,99323.50
2022-12-03T18:25:49.926Z,99319.09
2022-12-03T18:28:21.468Z,99317.23
2022-12-03T18:30:53.147Z,99315.70
2022-12-03T18:33:24.827Z,99312.46
2022-12-03T18:35:58.665Z,99313.83
2022-12-03T18:38:32.363Z,99310.77
2022-12-03T18:41:04.908Z,99313.22
2022-12-03T18:43:36.608Z,99315.84
2022-12-03T18:46:31.306Z,99313.11
2022-12-03T18:49:06.204Z,99309.50
2022-12-03T18:51:38.192Z,99308.14
2022-12-03T18:54:14.272Z,99308.92
2022-12-03T18:56:45.861Z,99303.00
2022-12-03T18:59:17.305Z,99301.27
2022-12-03T19:01:48.835Z,99298.66
2022-12-03T19:04:20.339Z,99297.45
2022-12-03T19:06:52.379Z,99299.29
2022-12-03T19:09:23.904Z,99300.66
2022-12-03T19:11:55.462Z,99301.73
2022-12-03T19:14:27.469Z,99303.17
2022-12-03T19:16:59.288Z,99300.80
2022-12-03T19:19:31.049Z,99300.58
2022-12-03T19:22:02.757Z,99301.11
2022-12-03T19:24:34.371Z,99306.70
2022-12-03T19:27:05.911Z,99303.34
2022-12-03T19:29:37.415Z,99307.14
2022-12-03T19:32:09.961Z,99304.31
2022-12-03T19:34:41.793Z,99305.79
2022-12-03T19:37:13.285Z,99313.54
2022-12-03T19:39:44.845Z,99311.48
2022-12-03T19:42:17.327Z,99308.30
2022-12-03T19:44:48.836Z,99311.49
2022-12-03T19:47:20.316Z,99310.54
2022-12-03T19:49:53.824Z,99309.85
2022-12-03T19:52:25.723Z,99311.80
2022-12-03T19:54:57.245Z,99310.08
2022-12-03T19:57:29.318Z,99312.17
2022-12-03T20:00:01.165Z,99316.45
2022-12-03T20:02:32.739Z,99311.21
2022-12-03T20:05:04.628Z,99317.88
2022-12-03T20:07:36.139Z,99314.41
2022-12-03T20:10:09.659Z,99314.28
2022-12-03T20:12:41.164Z,99312.55
2022-12-03T20:15:14.967Z,99311.52
2022-12-03T20:17:46.428Z,99311.20
2022-12-03T20:20:18.237Z,99310.58
2022-12-03T20:22:49.855Z,99302.50
2022-12-03T20:25:21.876Z,99301.98
2022-12-03T20:27:53.405Z,99300.61
2022-12-03T20:30:24.905Z,99300.00
2022-12-03T20:32:56.425Z,99299.75
2022-12-03T20:35:28.114Z,99300.34
2022-12-03T20:37:59.685Z,99300.69
2022-12-03T20:40:31.389Z,99303.36
2022-12-03T20:43:02.881Z,99302.27
2022-12-03T20:45:34.413Z,99306.05
2022-12-03T20:48:08.240Z,99297.77
2022-12-03T20:50:41.668Z,99301.02
2022-12-03T20:53:27.676Z,99298.66
2022-12-03T20:56:00.056Z,99301.11
2022-12-03T20:58:32.116Z,99293.52
2022-12-03T21:01:15.683Z,99296.99
2022-12-03T21:03:48.368Z,99295.27
2022-12-03T21:06:21.067Z,99301.31
2022-12-03T21:08:55.108Z,99301.11
2022-12-03T21:11:29.544Z,99301.16
2022-12-03T21:14:01.347Z,99297.05
2022-12-03T21:19:27.536Z,99300.89
2022-12-03T21:21:59.142Z,99305.64
2022-12-03T21:24:30.934Z,99311.73
2022-12-03T21:27:02.724Z,99311.87
2022-12-03T21:29:34.297Z,99308.39
2022-12-03T21:32:06.004Z,99312.26
2022-12-03T21:34:37.555Z,99307.73
2022-12-03T21:37:09.032Z,99310.14
2022-12-03T21:39:40.804Z,99311.41
2022-12-03T21:42:34.189Z,99304.14
2022-12-03T21:45:04.030Z,99312.59
2022-12-03T21:47:37.536Z,99311.09
2022-12-03T21:50:12.161Z,99310.95
2022-12-03T21:52:44.297Z,99312.20
2022-12-03T21:55:15.833Z,99293.04
2022-12-03T21:57:47.363Z,99311.55
2022-12-03T22:00:20.104Z,99308.50
2022-12-03T22:02:52.516Z,99305.52
2022-12-03T22:05:24.419Z,99301.56
2022-12-03T22:07:55.923Z,99301.44
2022-12-03T22:10:27.461Z,99298.66
2022-12-03T22:12:59.388Z,99294.00
2022-12-03T22:15:30.875Z,99296.77
2022-12-03T22:18:02.377Z,99298.07
2022-12-03T22:20:33.975Z,99297.10
2022-12-03T22:23:05.549Z,99292.86
2022-12-03T22:25:37.057Z,99290.33
2022-12-03T22:28:08.672Z,99290.31
2022-12-03T22:30:42.806Z,99285.69
2022-12-03T22:33:14.370Z,99281.05
2022-12-03T22:35:54.735Z,99282.22
2022-12-03T22:38:26.785Z,99286.34
2022-12-03T22:40:58.837Z,99284.20
2022-12-03T22:43:30.393Z,99278.41
2022-12-03T22:46:02.171Z,99275.25
2022-12-03T22:48:35.908Z,99280.02
2022-12-03T22:51:13.892Z,99276.16
2022-12-03T22:53:45.425Z,99280.38
2022-12-03T22:56:17.330Z,99276.75
2022-12-03T22:58:48.881Z,99275.98
2022-12-03T23:01:26.225Z,99272.98
2022-12-03T23:03:58.577Z,99272.98
2022-12-03T23:06:31.501Z,99271.78
2022-12-03T23:09:03.133Z,99267.55
2022-12-03T23:11:35.145Z,99264.02
2022-12-03T23:14:06.872Z,99260.25
2022-12-03T23:16:38.438Z,99265.70
2022-12-03T23:19:10.019Z,99261.45
2022-12-03T23:21:41.559Z,99257.17
2022-12-03T23:24:13.617Z,99253.89
2022-12-03T23:26:45.431Z,99253.11
2022-12-03T23:29:17.143Z,99259.64
2022-12-03T23:31:48.772Z,99262.00
2022-12-03T23:34:20.389Z,99264.10
2022-12-03T23:36:51.992Z,99254.64
2022-12-03T23:39:23.491Z,99256.02
2022-12-03T23:41:55.308Z,99252.79
2022-12-03T23:44:28.063Z,99248.76
2022-12-03T23:46:59.720Z,99243.35
2022-12-03T23:49:32.097Z,99242.27
2022-12-03T23:52:03.634Z,99242.38
2022-12-03T23:54:35.215Z,99238.73
2022-12-03T23:57:07.342Z,99241.86
2022-12-03T23:59:39.204Z,99239.78
